This is the latest recevied weather packets stored in our database for station/object OSTR-WX. If no packets are shown the sender has not sent any weather packets the latest 10 day(s).
| Time | Temp. | Humidity | Pressure | Rain* | Wind** | Luminosity | Snow |
|---|---|---|---|---|---|---|---|
| 1777508509 | -3.33° C | 86% | 1033.5 hPa | - | - | - | - |
| 1777507555 | -2.78° C | 85% | 1033.6 hPa | - | - | - | - |
| 1777505645 | -2.78° C | 84% | 1033.5 hPa | - | - | - | - |
| 1777505639 | -2.78° C | 84% | 1033.5 hPa | - | - | - | - |
| 1777500854 | -1.67° C | 82% | 1033.2 hPa | - | - | - | - |
| 1777499903 | -1.67° C | 81% | 1033.2 hPa | - | - | - | - |
| 1777499896 | -1.67° C | 81% | 1033.2 hPa | - | - | - | - |
| 1777498940 | -1.67° C | 79% | 1033.1 hPa | - | - | - | - |
| 1777495118 | -1.11° C | 76% | 1032.3 hPa | - | - | - | - |
| 1777495111 | -1.11° C | 76% | 1032.3 hPa | - | - | - | - |
| 1777495111 | -1.11° C | 76% | 1032.3 hPa | - | - | - | - |
| 1777494157 | -0.56° C | 74% | 1032.1 hPa | - | - | - | - |
| 1777494155 | -0.56° C | 74% | 1032.1 hPa | - | - | - | - |
| 1777490326 | 1.11° C | 68% | 1031.7 hPa | - | - | - | - |
| 1777487456 | 3.33° C | 60% | 1030.9 hPa | - | - | - | - |
| 1777485541 | 5° C | 54% | 1030.4 hPa | - | - | - | - |
| 1777483634 | 7.78° C | 47% | 1029.8 hPa | - | - | - | - |
| 1777483629 | 7.78° C | 47% | 1029.8 hPa | - | - | - | - |
| 1777483627 | 7.78° C | 47% | 1029.8 hPa | - | - | - | - |
| 1777481714 | 11.67° C | 38% | 1028.9 hPa | - | - | - | - |
| 1777480759 | 12.22° C | 37% | 1028.8 hPa | - | - | - | - |
| 1777480757 | 12.22° C | 37% | 1028.8 hPa | - | - | - | - |
| 1777479799 | 10.56° C | 39% | 1028.9 hPa | - | - | - | - |
| 1777478842 | 10.56° C | 39% | 1028.9 hPa | - | - | - | - |
| 1777474057 | 10° C | 39% | 1028.3 hPa | - | - | - | - |
* Rain since midnight (hover to see other rain measurements)
** Current wind speed in m/s (hover to see current wind gust speed)